Time;durP1;ratioP1;P1;durP2;ratioP2;P2;SDS_P1;SDS_P2;PMS_P1;PMS_P2;Temp;Humidity;BMP_temperature;BMP_pressure;BME280_temperature;BME280_humidity;BME280_pressure;Samples;Min_cycle;Max_cycle;Signal;HPM_P1;HPM_P2
2021/12/01 00:00:33;;;;;;;0.30;0.30;;;8.90;87.20;9.10;95836.00;;;;5071077;28;20673;-85
2021/12/01 00:03:01;;;;;;;0.30;0.30;;;9.00;87.80;9.10;95821.00;;;;5052684;28;20216;-85
2021/12/01 00:05:33;;;;;;;0.43;0.43;;;9.00;87.70;9.10;95825.00;;;;5053777;28;20224;-85
2021/12/01 00:08:00;;;;;;;0.30;0.30;;;9.00;87.70;9.10;95817.00;;;;5057109;28;20211;-85
2021/12/01 00:10:30;;;;;;;0.33;0.33;;;9.00;88.20;9.20;95823.00;;;;5072252;28;20234;-85
2021/12/01 00:12:59;;;;;;;0.77;0.40;;;9.10;87.40;9.20;95822.00;;;;5072712;28;20286;-84
2021/12/01 00:15:26;;;;;;;0.40;0.40;;;9.10;87.40;9.20;95806.00;;;;5071104;28;20669;-83
2021/12/01 00:17:53;;;;;;;0.30;0.30;;;9.10;87.90;9.20;95810.00;;;;5072307;28;20223;-85
2021/12/01 00:20:21;;;;;;;0.40;0.40;;;9.10;88.10;9.20;95819.00;;;;5071836;28;20283;-85
2021/12/01 00:22:50;;;;;;;0.57;0.57;;;9.20;87.70;9.20;95802.00;;;;5054513;28;20284;-85
2021/12/01 00:25:22;;;;;;;0.40;0.40;;;9.10;87.10;9.30;95802.00;;;;5059485;28;20236;-85
2021/12/01 00:27:50;;;;;;;0.30;0.30;;;9.20;87.80;9.30;95799.00;;;;5053975;28;20252;-85
2021/12/01 00:30:20;;;;;;;0.40;0.40;;;9.20;87.90;9.30;95810.00;;;;5066383;28;20196;-85
2021/12/01 00:32:47;;;;;;;0.37;0.37;;;9.20;87.80;9.30;95815.00;;;;5074586;28;20673;-84
2021/12/01 00:35:15;;;;;;;0.50;0.50;;;9.20;87.40;9.40;95801.00;;;;5072009;28;20693;-84
2021/12/01 00:37:44;;;;;;;0.50;0.50;;;9.20;88.00;9.40;95807.00;;;;5071551;28;20760;-85
2021/12/01 00:40:13;;;;;;;0.37;0.37;;;9.30;87.00;9.40;95806.00;;;;5057643;28;20236;-85
2021/12/01 00:42:41;;;;;;;0.30;0.30;;;9.30;87.70;9.40;95792.00;;;;5075241;28;20311;-85
2021/12/01 00:45:13;;;;;;;0.33;0.33;;;9.30;87.00;9.40;95790.00;;;;5074958;28;20643;-85
2021/12/01 00:47:46;;;;;;;0.40;0.40;;;9.30;87.00;9.40;95786.00;;;;5074810;28;20220;-85
2021/12/01 00:50:17;;;;;;;0.40;0.40;;;9.40;87.40;9.50;95789.00;;;;5075972;28;20202;-85
2021/12/01 00:52:44;;;;;;;0.40;0.40;;;9.40;87.20;9.50;95782.00;;;;5076122;28;20630;-85
2021/12/01 00:55:12;;;;;;;0.50;0.50;;;9.40;86.60;9.50;95777.00;;;;5074858;28;20820;-85
2021/12/01 00:57:39;;;;;;;0.40;0.40;;;9.40;86.90;9.50;95780.00;;;;5054855;28;20251;-84
2021/12/01 01:00:10;;;;;;;0.40;0.40;;;9.50;86.50;9.50;95775.00;;;;5055998;28;20196;-85
2021/12/01 01:02:38;;;;;;;0.77;0.37;;;9.50;86.40;9.50;95765.00;;;;5059444;28;20291;-85
2021/12/01 01:05:09;;;;;;;0.47;0.40;;;9.50;86.90;9.50;95775.00;;;;5075386;28;20279;-85
2021/12/01 01:07:37;;;;;;;0.40;0.40;;;9.50;86.60;9.60;95773.00;;;;5070991;28;20259;-85
2021/12/01 01:10:16;;;;;;;0.93;0.40;;;9.50;87.00;9.60;95767.00;;;;5064071;28;20283;-84
2021/12/01 01:18:14;;;;;;;0.30;0.30;;;9.60;85.80;9.60;95762.00;;;;5070491;28;20246;-85
2021/12/01 01:20:43;;;;;;;0.20;0.20;;;9.60;85.50;9.60;95753.00;;;;5075437;28;20267;-85
2021/12/01 01:23:10;;;;;;;0.37;0.37;;;9.60;86.20;9.60;95751.00;;;;5075533;28;20306;-85
2021/12/01 01:25:38;;;;;;;0.40;0.33;;;9.60;86.40;9.60;95754.00;;;;5076215;28;20287;-85
2021/12/01 01:28:05;;;;;;;0.40;0.40;;;9.60;85.60;9.70;95746.00;;;;5078095;28;20283;-85
2021/12/01 01:30:33;;;;;;;0.30;0.30;;;9.60;85.70;9.70;95760.00;;;;5078198;28;20310;-85
2021/12/01 01:33:01;;;;;;;0.20;0.20;;;9.60;85.60;9.70;95747.00;;;;5077063;28;20200;-85
2021/12/01 01:35:29;;;;;;;0.20;0.20;;;9.60;85.10;9.70;95750.00;;;;5074657;28;20244;-85
2021/12/01 01:37:57;;;;;;;0.30;0.30;;;9.60;85.20;9.70;95731.00;;;;5076818;28;20263;-85
2021/12/01 01:40:25;;;;;;;0.30;0.30;;;9.70;85.50;9.70;95731.00;;;;5077791;28;20234;-84
2021/12/01 01:42:52;;;;;;;0.57;0.50;;;9.70;85.50;9.70;95735.00;;;;5077653;28;20228;-84
2021/12/01 01:45:19;;;;;;;1.07;0.30;;;9.70;86.00;9.70;95738.00;;;;5078461;28;20230;-85
2021/12/01 01:47:59;;;;;;;0.37;0.37;;;9.70;85.30;9.80;95742.00;;;;5080021;28;20252;-84
2021/12/01 01:50:35;;;;;;;0.30;0.30;;;9.70;84.80;9.80;95729.00;;;;5061139;28;20189;-85
2021/12/01 01:53:06;;;;;;;0.40;0.40;;;9.70;85.00;9.80;95732.00;;;;5058099;28;20262;-85
2021/12/01 01:55:35;;;;;;;0.30;0.30;;;9.80;85.30;9.80;95718.00;;;;5072803;28;20255;-85
2021/12/01 01:58:03;;;;;;;0.20;0.20;;;9.70;84.80;9.80;95722.00;;;;5078464;28;20717;-85
2021/12/01 02:00:32;;;;;;;0.30;0.30;;;9.70;85.20;9.80;95724.00;;;;5077075;28;20279;-85
2021/12/01 02:02:59;;;;;;;0.20;0.20;;;9.80;84.90;9.90;95718.00;;;;5075508;28;20687;-84
2021/12/01 02:05:27;;;;;;;0.33;0.33;;;9.80;85.00;9.90;95710.00;;;;5075000;28;20238;-84
2021/12/01 02:07:54;;;;;;;0.77;0.77;;;9.80;85.50;9.90;95718.00;;;;5084133;28;20572;-84
2021/12/01 02:10:23;;;;;;;0.83;0.20;;;9.80;85.60;9.90;95714.00;;;;5077162;28;20737;-85
2021/12/01 02:12:50;;;;;;;0.20;0.20;;;9.80;85.00;9.90;95708.00;;;;5054828;28;20240;-85
2021/12/01 02:15:17;;;;;;;0.30;0.30;;;9.90;84.90;9.90;95694.00;;;;5070677;28;20657;-84
2021/12/01 02:17:44;;;;;;;0.20;0.20;;;9.90;84.70;9.90;95688.00;;;;5073818;28;20223;-85
2021/12/01 02:20:21;;;;;;;0.27;0.27;;;9.90;85.50;9.90;95684.00;;;;5074190;28;20253;-84
2021/12/01 02:22:48;;;;;;;1.33;0.40;;;9.90;84.30;9.90;95685.00;;;;5053530;28;20197;-85
2021/12/01 02:25:16;;;;;;;0.30;0.30;;;9.90;84.90;9.90;95684.00;;;;5070630;28;20231;-85
2021/12/01 02:27:43;;;;;;;0.27;0.27;;;9.90;84.70;9.90;95684.00;;;;5073551;28;20216;-85
2021/12/01 02:30:11;;;;;;;0.93;0.30;;;9.90;85.30;9.90;95676.00;;;;5074229;28;20203;-85
2021/12/01 02:32:39;;;;;;;0.40;0.40;;;9.90;84.10;9.90;95676.00;;;;5074311;28;20283;-85
2021/12/01 02:35:07;;;;;;;0.37;0.37;;;9.90;85.10;9.90;95659.00;;;;5072369;28;20770;-84
2021/12/01 02:37:38;;;;;;;0.20;0.20;;;9.90;84.60;10.00;95658.00;;;;5053897;28;20262;-84
2021/12/01 02:40:07;;;;;;;0.30;0.30;;;9.90;84.10;10.00;95639.00;;;;5058620;28;20232;-85
2021/12/01 02:42:34;;;;;;;0.40;0.40;;;9.90;84.90;10.00;95648.00;;;;5074898;28;20681;-85
2021/12/01 02:45:02;;;;;;;0.33;0.33;;;9.90;84.80;10.00;95636.00;;;;5075975;28;20243;-85
2021/12/01 02:47:29;;;;;;;0.30;0.30;;;10.00;84.80;10.00;95640.00;;;;5074955;28;20242;-85
2021/12/01 02:49:56;;;;;;;0.27;0.27;;;10.00;84.90;10.00;95626.00;;;;5057743;28;20204;-85
2021/12/01 02:52:24;;;;;;;0.23;0.23;;;10.00;84.50;10.10;95639.00;;;;5073508;28;20284;-85
2021/12/01 02:54:55;;;;;;;0.30;0.30;;;10.00;85.00;10.10;95628.00;;;;5077120;28;20227;-85
2021/12/01 02:57:22;;;;;;;0.40;0.40;;;10.00;84.60;10.10;95632.00;;;;5077764;28;20239;-85
2021/12/01 02:59:50;;;;;;;0.23;0.23;;;10.00;85.10;10.10;95650.00;;;;5078646;28;20204;-85
2021/12/01 03:02:18;;;;;;;0.20;0.20;;;10.10;84.40;10.10;95640.00;;;;5074524;28;20224;-85
2021/12/01 03:04:45;;;;;;;0.20;0.20;;;10.10;84.40;10.20;95631.00;;;;5058164;28;20244;-85
2021/12/01 03:07:13;;;;;;;0.30;0.30;;;10.10;84.40;10.20;95619.00;;;;5067741;28;20267;-86
2021/12/01 03:09:40;;;;;;;0.30;0.30;;;10.10;83.70;10.20;95617.00;;;;5070785;28;20228;-85
2021/12/01 03:12:10;;;;;;;0.30;0.30;;;10.20;84.50;10.20;95607.00;;;;5075879;28;20625;-85
2021/12/01 03:14:37;;;;;;;0.20;0.20;;;10.20;84.20;10.20;95599.00;;;;5075733;28;20196;-85
2021/12/01 03:17:05;;;;;;;0.30;0.30;;;10.20;84.30;10.20;95594.00;;;;5074671;28;20247;-85
2021/12/01 03:19:32;;;;;;;0.30;0.30;;;10.20;84.40;10.20;95608.00;;;;5077372;28;20219;-85
2021/12/01 03:21:59;;;;;;;0.23;0.23;;;10.20;84.40;10.20;95609.00;;;;5076642;28;20223;-86
2021/12/01 03:24:26;;;;;;;0.20;0.20;;;10.20;84.10;10.20;95618.00;;;;5076435;28;20246;-85
2021/12/01 03:26:53;;;;;;;0.30;0.30;;;10.20;83.50;10.20;95596.00;;;;5075329;28;20260;-85
2021/12/01 03:29:22;;;;;;;0.30;0.30;;;10.20;83.90;10.20;95587.00;;;;5076065;28;20235;-85
2021/12/01 03:31:49;;;;;;;0.17;0.17;;;10.20;84.20;10.20;95581.00;;;;5059979;28;20208;-84
2021/12/01 03:34:17;;;;;;;4.40;0.40;;;10.20;83.80;10.10;95594.00;;;;5054164;28;20224;-85
2021/12/01 03:36:44;;;;;;;0.30;0.20;;;10.20;83.40;10.10;95589.00;;;;5067842;28;20243;-84
2021/12/01 03:39:11;;;;;;;0.30;0.30;;;10.10;83.80;10.10;95581.00;;;;5073154;28;20231;-84
2021/12/01 03:41:38;;;;;;;0.30;0.30;;;10.10;83.60;10.10;95590.00;;;;5067016;28;20236;-84
2021/12/01 03:44:06;;;;;;;0.20;0.20;;;10.10;83.20;10.10;95577.00;;;;5074975;28;20216;-85
2021/12/01 03:46:35;;;;;;;0.20;0.20;;;10.10;83.50;10.00;95577.00;;;;5075954;28;20207;-85
2021/12/01 03:49:03;;;;;;;0.20;0.20;;;10.10;83.40;10.00;95577.00;;;;5077349;28;20220;-85
2021/12/01 03:51:30;;;;;;;0.43;0.40;;;10.10;84.00;10.00;95576.00;;;;5073082;28;20251;-84
2021/12/01 03:53:57;;;;;;;0.30;0.30;;;10.00;84.20;10.00;95570.00;;;;5057356;28;20254;-85
2021/12/01 03:56:24;;;;;;;0.30;0.30;;;10.00;83.80;9.90;95575.00;;;;5076283;28;20196;-85
2021/12/01 03:58:53;;;;;;;0.33;0.30;;;10.00;84.30;9.90;95574.00;;;;5076367;28;20239;-85
2021/12/01 04:01:21;;;;;;;0.30;0.30;;;10.00;84.40;9.90;95574.00;;;;5074888;28;20238;-85
2021/12/01 04:03:49;;;;;;;0.30;0.30;;;9.90;84.50;9.90;95566.00;;;;5074849;28;20307;-84
2021/12/01 04:06:16;;;;;;;0.37;0.37;;;9.90;84.00;9.90;95564.00;;;;5073856;28;20730;-85
2021/12/01 04:08:44;;;;;;;0.87;0.30;;;9.90;84.00;9.80;95556.00;;;;5074576;28;20295;-84
2021/12/01 04:11:12;;;;;;;0.30;0.30;;;9.90;84.10;9.80;95549.00;;;;5074546;28;20199;-84
2021/12/01 04:13:39;;;;;;;0.30;0.30;;;9.80;84.10;9.80;95556.00;;;;5074805;28;20234;-84
2021/12/01 04:16:06;;;;;;;0.33;0.33;;;9.80;84.70;9.90;95558.00;;;;5076395;28;20222;-85
2021/12/01 04:18:40;;;;;;;0.30;0.30;;;9.80;84.70;9.90;95551.00;;;;5079813;22;20252;-84
2021/12/01 04:21:16;;;;;;;0.30;0.30;;;9.90;84.50;9.90;95563.00;;;;5057172;28;20250;-86
2021/12/01 04:23:48;;;;;;;0.30;0.30;;;9.80;84.50;9.80;95553.00;;;;5056956;28;20216;-84
2021/12/01 04:26:23;;;;;;;0.30;0.30;;;9.80;84.30;9.80;95549.00;;;;5066037;28;20781;-84
2021/12/01 04:28:57;;;;;;;0.40;0.40;;;9.80;84.30;9.80;95548.00;;;;5077365;28;20204;-85
2021/12/01 04:31:24;;;;;;;0.67;0.67;;;9.80;84.80;9.80;95537.00;;;;5070413;28;20292;-85
2021/12/01 04:33:52;;;;;;;0.30;0.30;;;9.80;84.80;9.80;95533.00;;;;5055966;28;20261;-85
2021/12/01 04:36:21;;;;;;;0.47;0.47;;;9.80;85.00;9.80;95531.00;;;;5074196;28;20212;-85
2021/12/01 04:38:49;;;;;;;0.40;0.40;;;9.80;84.80;9.80;95532.00;;;;5076294;28;20231;-85
2021/12/01 04:41:29;;;;;;;0.40;0.40;;;9.80;84.70;9.80;95528.00;;;;5057970;28;20200;-85
2021/12/01 04:44:08;;;;;;;1.23;0.53;;;9.80;84.70;9.80;95539.00;;;;5055953;28;20247;-85
2021/12/01 04:46:45;;;;;;;0.40;0.40;;;9.80;85.20;9.90;95539.00;;;;5056398;28;20311;-85
2021/12/01 04:49:17;;;;;;;8.03;1.13;;;9.80;84.80;9.90;95536.00;;;;5056619;28;20204;-85
2021/12/01 04:51:56;;;;;;;0.57;0.57;;;9.80;84.80;9.90;95525.00;;;;5057390;28;20207;-85
2021/12/01 04:54:28;;;;;;;0.80;0.80;;;9.80;84.70;9.90;95526.00;;;;5054584;28;20207;-84
2021/12/01 04:56:56;;;;;;;0.60;0.60;;;9.80;85.10;9.90;95519.00;;;;5055088;28;20693;-84
2021/12/01 04:59:28;;;;;;;0.63;0.63;;;9.80;84.80;9.90;95515.00;;;;5054780;28;20335;-84
2021/12/01 05:01:59;;;;;;;0.60;0.60;;;9.80;85.20;9.90;95516.00;;;;5054186;28;20181;-84
2021/12/01 05:04:27;;;;;;;0.50;0.50;;;9.80;84.70;9.90;95522.00;;;;5033974;28;20221;-85
2021/12/01 05:06:56;;;;;;;1.03;0.50;;;9.90;85.20;10.00;95522.00;;;;5045515;28;20228;-85
2021/12/01 05:09:28;;;;;;;0.60;0.60;;;9.90;85.00;10.00;95520.00;;;;5054569;28;20584;-85
2021/12/01 05:12:02;;;;;;;0.83;0.50;;;9.90;85.00;10.00;95522.00;;;;5056101;28;20205;-85
2021/12/01 05:14:35;;;;;;;0.50;0.50;;;9.90;84.80;10.10;95521.00;;;;5055889;28;20185;-85
2021/12/01 05:17:07;;;;;;;0.57;0.57;;;9.90;84.70;10.10;95515.00;;;;5055776;28;20220;-84
2021/12/01 05:19:37;;;;;;;0.70;0.70;;;10.00;84.80;10.10;95510.00;;;;5056427;28;20188;-85
2021/12/01 05:22:10;;;;;;;0.77;0.70;;;10.00;84.80;10.10;95509.00;;;;5064514;28;20207;-86
2021/12/01 05:24:38;;;;;;;0.50;0.50;;;10.00;84.90;10.10;95505.00;;;;5068712;28;20248;-85
2021/12/01 05:27:06;;;;;;;1.07;0.70;;;10.00;84.90;10.10;95498.00;;;;5057204;28;20216;-85
2021/12/01 05:29:33;;;;;;;0.60;0.60;;;10.00;84.80;10.20;95491.00;;;;5072238;28;20195;-86
2021/12/01 05:32:01;;;;;;;0.60;0.60;;;10.00;84.70;10.20;95496.00;;;;5054562;28;20207;-85
2021/12/01 05:34:29;;;;;;;0.80;0.80;;;10.00;84.40;10.20;95487.00;;;;5055708;28;20197;-85
2021/12/01 05:37:01;;;;;;;2.53;0.80;;;10.10;84.80;10.20;95493.00;;;;5056266;28;20279;-85
2021/12/01 05:39:32;;;;;;;1.27;0.93;;;10.10;84.30;10.20;95476.00;;;;5055250;28;20243;-85
2021/12/01 05:41:59;;;;;;;2.13;0.83;;;10.10;84.60;10.20;95471.00;;;;5055796;28;20200;-85
2021/12/01 05:44:29;;;;;;;0.97;0.87;;;10.10;84.50;10.20;95463.00;;;;5057637;28;20258;-85
2021/12/01 05:47:05;;;;;;;0.70;0.70;;;10.10;84.30;10.30;95454.00;;;;5055123;28;20618;-86
2021/12/01 05:49:41;;;;;;;0.83;0.83;;;10.10;84.30;10.30;95450.00;;;;5055861;28;20271;-85
2021/12/01 05:52:09;;;;;;;0.80;0.80;;;10.10;84.00;10.30;95460.00;;;;5055328;28;20208;-85
2021/12/01 05:54:38;;;;;;;0.80;0.80;;;10.20;84.20;10.30;95462.00;;;;5056153;28;20654;-86
2021/12/01 05:57:06;;;;;;;0.90;0.90;;;10.20;84.10;10.30;95451.00;;;;5056406;28;20224;-86
2021/12/01 05:59:36;;;;;;;0.87;0.87;;;10.20;83.80;10.30;95446.00;;;;5055828;28;20291;-85
2021/12/01 06:02:04;;;;;;;0.80;0.80;;;10.20;83.60;10.30;95449.00;;;;5055700;28;20193;-85
2021/12/01 06:04:31;;;;;;;1.20;1.10;;;10.20;83.90;10.30;95441.00;;;;5056127;28;20601;-84
2021/12/01 06:07:00;;;;;;;1.10;1.10;;;10.20;84.00;10.30;95441.00;;;;5055292;28;20305;-87
2021/12/01 06:09:32;;;;;;;1.20;0.83;;;10.20;84.20;10.20;95437.00;;;;5055443;28;20657;-86
2021/12/01 06:12:02;;;;;;;1.23;1.00;;;10.20;83.90;10.30;95431.00;;;;5056162;28;20625;-86
2021/12/01 06:14:36;;;;;;;1.67;1.10;;;10.20;83.80;10.20;95426.00;;;;5055461;28;20613;-85
2021/12/01 06:17:15;;;;;;;0.90;0.90;;;10.20;83.90;10.30;95434.00;;;;5056186;28;20220;-85
2021/12/01 06:19:49;;;;;;;1.97;1.07;;;10.20;83.80;10.30;95428.00;;;;5054843;28;20235;-85
2021/12/01 06:22:32;;;;;;;2.47;1.00;;;10.20;83.60;10.20;95421.00;;;;5069112;28;20204;-86
2021/12/01 06:25:04;;;;;;;0.73;0.73;;;10.20;84.10;10.20;95417.00;;;;5076214;28;20304;-86
2021/12/01 06:27:38;;;;;;;1.57;0.90;;;10.20;84.10;10.30;95420.00;;;;5076254;28;20223;-86
2021/12/01 06:30:08;;;;;;;1.03;1.03;;;10.20;84.00;10.30;95417.00;;;;5076441;28;20176;-86
2021/12/01 06:32:36;;;;;;;0.90;0.90;;;10.20;84.40;10.20;95401.00;;;;5076580;28;20207;-87
2021/12/01 06:35:04;;;;;;;1.07;1.07;;;10.20;84.10;10.30;95395.00;;;;5062728;28;20641;-88
2021/12/01 06:37:32;;;;;;;1.30;1.20;;;10.20;84.30;10.30;95396.00;;;;5059331;28;20208;-88
2021/12/01 06:39:59;;;;;;;1.60;0.93;;;10.20;84.40;10.30;95381.00;;;;5062304;28;20197;-88
2021/12/01 06:42:26;;;;;;;1.17;0.90;;;10.20;84.30;10.30;95392.00;;;;5056354;28;20203;-88
2021/12/01 06:44:55;;;;;;;2.37;1.30;;;10.20;84.00;10.40;95396.00;;;;5054885;28;20216;-88
2021/12/01 06:47:22;;;;;;;1.40;1.30;;;10.20;84.50;10.40;95390.00;;;;5054932;28;20391;-86
2021/12/01 06:49:50;;;;;;;1.23;1.13;;;10.20;84.60;10.40;95375.00;;;;5056091;28;20274;-88
2021/12/01 06:52:28;;;;;;;1.10;1.10;;;10.20;84.40;10.50;95383.00;;;;5074811;28;20208;-88
2021/12/01 06:54:56;;;;;;;0.97;0.97;;;10.30;84.10;10.50;95391.00;;;;5070414;28;20550;-88
2021/12/01 06:57:27;;;;;;;1.43;1.00;;;10.30;84.70;10.50;95372.00;;;;5056209;28;20216;-88
2021/12/01 07:00:03;;;;;;;0.90;0.90;;;10.30;84.50;10.60;95378.00;;;;5055702;28;20204;-90
2021/12/01 07:02:40;;;;;;;0.80;0.80;;;10.30;84.10;10.60;95372.00;;;;5054254;28;20189;-87
2021/12/01 07:05:10;;;;;;;1.07;0.77;;;10.30;84.10;10.60;95372.00;;;;5080547;22;20263;-89
2021/12/01 07:07:38;;;;;;;1.40;1.30;;;10.40;84.10;10.60;95370.00;;;;5087052;28;20248;-87
2021/12/01 07:10:09;;;;;;;2.17;1.80;;;10.40;84.30;10.60;95366.00;;;;5071682;28;20258;-86
2021/12/01 07:12:36;;;;;;;0.90;0.90;;;10.40;84.10;10.60;95363.00;;;;5052494;28;20272;-86
2021/12/01 07:15:07;;;;;;;1.27;0.70;;;10.40;84.20;10.60;95360.00;;;;5065080;28;20230;-86
2021/12/01 07:17:34;;;;;;;1.03;0.93;;;10.40;84.20;10.60;95351.00;;;;5060826;28;20184;-87
2021/12/01 07:20:01;;;;;;;1.20;1.10;;;10.40;83.90;10.60;95351.00;;;;5072167;28;20302;-88
2021/12/01 07:22:28;;;;;;;0.87;0.80;;;10.40;83.80;10.60;95334.00;;;;5102667;28;20195;-87
2021/12/01 07:24:56;;;;;;;0.73;0.73;;;10.40;83.70;10.70;95339.00;;;;5077161;28;20252;-86
2021/12/01 07:27:23;;;;;;;0.93;0.70;;;10.40;83.80;10.70;95338.00;;;;5052365;28;20697;-88
2021/12/01 07:29:50;;;;;;;1.10;1.00;;;10.40;83.90;10.70;95324.00;;;;5060790;28;20310;-89
2021/12/01 07:32:19;;;;;;;0.83;0.80;;;10.50;84.00;10.70;95333.00;;;;5071611;28;20234;-89
2021/12/01 07:34:48;;;;;;;2.67;0.83;;;10.50;83.90;10.70;95320.00;;;;5052901;28;20246;-85
2021/12/01 07:37:18;;;;;;;1.13;0.60;;;10.50;83.40;10.70;95317.00;;;;5051724;28;20243;-86
2021/12/01 07:39:47;;;;;;;0.73;0.73;;;10.50;83.90;10.70;95321.00;;;;5052143;28;20252;-86
2021/12/01 07:42:16;;;;;;;0.60;0.60;;;10.50;83.90;10.80;95321.00;;;;5065301;28;20721;-85
2021/12/01 07:44:44;;;;;;;0.67;0.67;;;10.60;83.50;10.80;95328.00;;;;5070698;28;20716;-85
2021/12/01 07:47:12;;;;;;;1.10;0.80;;;10.60;83.70;10.80;95319.00;;;;5063375;28;20307;-86
2021/12/01 07:49:41;;;;;;;0.70;0.70;;;10.60;83.30;10.80;95311.00;;;;5076259;28;20214;-87
2021/12/01 07:52:09;;;;;;;1.17;0.63;;;10.60;82.90;10.90;95304.00;;;;5098219;28;20733;-86
2021/12/01 07:54:40;;;;;;;0.80;0.80;;;10.70;83.30;10.90;95318.00;;;;5086309;28;20283;-86
2021/12/01 07:57:08;;;;;;;0.97;0.80;;;10.70;83.50;10.90;95310.00;;;;5080525;28;20275;-85
2021/12/01 07:59:35;;;;;;;0.57;0.57;;;10.70;82.80;10.90;95302.00;;;;5068248;28;20247;-85
2021/12/01 08:02:03;;;;;;;0.70;0.70;;;10.70;82.90;10.90;95302.00;;;;5077226;28;20235;-86
2021/12/01 08:04:30;;;;;;;1.00;0.90;;;10.70;82.70;10.90;95301.00;;;;5077217;28;20207;-87
2021/12/01 08:06:59;;;;;;;0.77;0.60;;;10.70;82.60;10.90;95299.00;;;;5089436;28;20227;-86
2021/12/01 08:09:27;;;;;;;2.60;1.90;;;10.70;82.50;10.90;95296.00;;;;5079710;28;20255;-86
2021/12/01 08:11:56;;;;;;;2.63;2.00;;;10.80;82.50;11.00;95293.00;;;;5077216;28;20635;-88
2021/12/01 08:14:24;;;;;;;1.13;1.03;;;10.80;82.40;11.00;95284.00;;;;5076595;28;20294;-87
2021/12/01 08:16:51;;;;;;;0.70;0.70;;;10.80;82.30;11.00;95277.00;;;;5071896;28;20333;-85
2021/12/01 08:19:19;;;;;;;0.60;0.50;;;10.80;82.40;11.10;95276.00;;;;5077230;28;20203;-88
2021/12/01 08:21:47;;;;;;;2.37;0.73;;;10.90;82.60;11.10;95266.00;;;;5076756;28;20238;-87
2021/12/01 08:24:17;;;;;;;0.60;0.60;;;10.90;82.10;11.20;95261.00;;;;5075991;28;21500;-87
2021/12/01 08:26:48;;;;;;;0.53;0.53;;;10.90;82.50;11.20;95255.00;;;;5076346;28;20216;-85
2021/12/01 08:29:16;;;;;;;1.90;0.50;;;11.00;82.00;11.20;95259.00;;;;5073941;28;20218;-86
2021/12/01 08:31:52;;;;;;;0.63;0.63;;;11.00;82.40;11.20;95254.00;;;;5078405;28;20287;-86
2021/12/01 08:34:19;;;;;;;1.47;0.50;;;11.00;80.60;11.10;95258.00;;;;5076209;28;20211;-86
2021/12/01 08:36:47;;;;;;;0.70;0.70;;;11.00;81.50;11.10;95257.00;;;;5074160;28;20230;-86
2021/12/01 08:39:15;;;;;;;0.50;0.50;;;11.00;81.10;11.10;95239.00;;;;5073085;28;20216;-86
2021/12/01 08:41:42;;;;;;;0.77;0.47;;;11.00;81.40;11.10;95244.00;;;;5075349;28;20287;-87
2021/12/01 08:44:10;;;;;;;2.33;0.50;;;11.00;81.60;11.10;95250.00;;;;5075371;28;20223;-86
2021/12/01 08:46:37;;;;;;;0.50;0.50;;;11.00;81.40;11.10;95250.00;;;;5076128;28;20677;-86
2021/12/01 08:49:05;;;;;;;0.80;0.70;;;11.00;81.70;11.10;95250.00;;;;5074389;28;20254;-86
2021/12/01 08:51:32;;;;;;;0.53;0.50;;;11.00;82.10;11.10;95257.00;;;;5076210;28;20675;-87
2021/12/01 08:54:00;;;;;;;1.00;0.90;;;11.00;81.90;11.20;95259.00;;;;5075860;28;20192;-87
2021/12/01 08:56:29;;;;;;;0.73;0.73;;;11.00;82.80;11.20;95252.00;;;;5077783;28;20279;-85
2021/12/01 08:58:56;;;;;;;1.00;0.80;;;11.00;81.60;11.20;95240.00;;;;5074045;28;20248;-85
2021/12/01 09:01:23;;;;;;;1.57;1.20;;;11.00;81.40;11.20;95259.00;;;;5073904;28;20279;-86
2021/12/01 09:03:50;;;;;;;0.80;0.80;;;11.00;81.90;11.20;95246.00;;;;5067042;28;20241;-87
2021/12/01 09:06:18;;;;;;;1.37;0.70;;;11.10;81.50;11.20;95232.00;;;;5059665;28;20266;-87
2021/12/01 09:08:45;;;;;;;0.53;0.53;;;11.10;81.70;11.30;95237.00;;;;5074188;28;20277;-86
2021/12/01 09:11:12;;;;;;;0.50;0.50;;;11.20;81.40;11.30;95225.00;;;;5070367;28;20735;-86
2021/12/01 09:13:41;;;;;;;0.87;0.87;;;11.20;81.70;11.30;95222.00;;;;5070316;28;20283;-86
2021/12/01 09:16:08;;;;;;;2.30;1.20;;;11.20;81.00;11.30;95222.00;;;;5084671;28;20286;-88
2021/12/01 09:18:37;;;;;;;1.03;0.90;;;11.30;81.10;11.40;95218.00;;;;5082669;28;20265;-86
2021/12/01 09:21:05;;;;;;;1.17;0.60;;;11.30;80.90;11.40;95253.00;;;;5091065;28;20231;-87
2021/12/01 09:23:33;;;;;;;0.67;0.67;;;11.30;81.10;11.50;95219.00;;;;5073660;28;20206;-87
2021/12/01 09:26:00;;;;;;;1.00;0.90;;;11.40;81.00;11.60;95219.00;;;;5073955;28;20259;-87
2021/12/01 09:28:28;;;;;;;0.60;0.53;;;11.50;81.90;11.70;95218.00;;;;5074029;28;20297;-86
2021/12/01 09:30:59;;;;;;;0.47;0.47;;;11.60;83.30;11.80;95217.00;;;;5072405;28;20929;-86
2021/12/01 09:33:27;;;;;;;0.70;0.70;;;11.80;81.90;12.00;95234.00;;;;5073488;28;20261;-88
2021/12/01 09:35:55;;;;;;;0.67;0.67;;;12.00;81.20;12.10;95221.00;;;;5073257;28;20203;-87
2021/12/01 09:38:22;;;;;;;0.83;0.57;;;12.10;81.20;12.30;95218.00;;;;5059267;28;20224;-86
2021/12/01 09:40:53;;;;;;;0.40;0.40;;;12.20;82.00;12.40;95216.00;;;;5063686;28;20237;-85
2021/12/01 09:43:25;;;;;;;0.67;0.57;;;12.40;81.60;12.60;95213.00;;;;5093434;28;20271;-85
2021/12/01 09:45:52;;;;;;;0.50;0.50;;;12.60;81.80;12.70;95204.00;;;;5091135;28;20665;-86
2021/12/01 09:48:22;;;;;;;0.40;0.40;;;12.80;82.00;12.90;95210.00;;;;5060647;28;20727;-87
2021/12/01 09:50:50;;;;;;;0.40;0.40;;;13.00;81.40;13.00;95207.00;;;;5052649;28;20204;-86
2021/12/01 09:53:17;;;;;;;0.50;0.40;;;13.10;81.30;13.10;95196.00;;;;5071356;28;20219;-87
2021/12/01 09:55:45;;;;;;;0.30;0.30;;;13.30;80.70;13.20;95192.00;;;;5065787;28;20259;-86
2021/12/01 09:58:16;;;;;;;0.47;0.47;;;13.40;79.70;13.30;95202.00;;;;5084303;28;20238;-86
2021/12/01 10:00:47;;;;;;;0.50;0.30;;;13.40;80.00;13.30;95188.00;;;;5082375;28;20200;-86
2021/12/01 10:03:15;;;;;;;1.90;0.40;;;13.50;78.90;13.40;95179.00;;;;5073122;28;20200;-87
2021/12/01 10:06:00;;;;;;;0.97;0.60;;;13.60;79.40;13.50;95170.00;;;;5071415;28;20212;-86
2021/12/01 10:08:31;;;;;;;0.80;0.60;;;13.70;78.80;13.50;95180.00;;;;5052775;28;20255;-87
2021/12/01 10:10:59;;;;;;;0.50;0.50;;;13.80;79.70;13.60;95170.00;;;;5052958;28;20724;-87
2021/12/01 10:13:30;;;;;;;0.93;0.73;;;13.90;79.00;13.70;95162.00;;;;5052369;28;20228;-86
2021/12/01 10:16:05;;;;;;;0.40;0.40;;;13.90;78.80;13.70;95157.00;;;;5052135;28;20270;-87
2021/12/01 10:18:39;;;;;;;0.40;0.40;;;13.90;78.20;13.70;95147.00;;;;5068582;22;20216;-83
2021/12/01 10:21:13;;;;;;;0.60;0.60;;;13.80;76.70;13.70;95141.00;;;;5053019;28;20670;-84
2021/12/01 10:23:47;;;;;;;0.53;0.53;;;13.80;77.20;13.70;95140.00;;;;5037484;28;20243;-85
2021/12/01 10:26:21;;;;;;;1.03;0.50;;;13.70;77.00;13.70;95135.00;;;;5037154;28;20705;-85
2021/12/01 10:28:51;;;;;;;0.60;0.40;;;13.70;77.70;13.60;95132.00;;;;5033491;28;20205;-85
2021/12/01 10:31:37;;;;;;;0.97;0.40;;;13.60;77.50;13.60;95124.00;;;;5049009;28;20286;-85
2021/12/01 10:34:35;;;;;;;0.40;0.40;;;13.50;76.20;13.60;95118.00;;;;5052567;28;20350;-85
2021/12/01 10:37:18;;;;;;;0.40;0.40;;;13.50;75.60;13.50;95102.00;;;;5052972;28;20201;-84
2021/12/01 10:39:48;;;;;;;1.00;0.40;;;13.40;77.40;13.50;95097.00;;;;5053169;28;20573;-85
2021/12/01 10:42:18;;;;;;;0.80;0.70;;;13.30;78.00;13.40;95077.00;;;;5051825;28;20200;-85
2021/12/01 10:45:01;;;;;;;0.50;0.50;;;13.20;77.30;13.40;95084.00;;;;5040856;28;20308;-84
2021/12/01 10:47:40;;;;;;;0.53;0.50;;;13.20;76.30;13.30;95071.00;;;;5044301;28;20247;-84
2021/12/01 10:50:08;;;;;;;0.47;0.47;;;13.20;76.50;13.30;95058.00;;;;5052900;28;20220;-84
2021/12/01 10:52:41;;;;;;;0.40;0.40;;;13.10;77.90;13.30;95051.00;;;;5051841;28;20239;-84
2021/12/01 10:55:13;;;;;;;0.40;0.40;;;13.10;77.40;13.30;95055.00;;;;5054539;28;20227;-84
2021/12/01 10:57:43;;;;;;;0.83;0.40;;;13.10;77.90;13.30;95037.00;;;;5052383;28;20216;-84
2021/12/01 11:00:19;;;;;;;0.43;0.43;;;13.10;78.60;13.40;95022.00;;;;5052604;28;20192;-84
2021/12/01 11:02:47;;;;;;;0.30;0.30;;;13.10;78.00;13.50;95024.00;;;;5052150;28;20181;-85
2021/12/01 11:05:29;;;;;;;0.73;0.60;;;13.10;78.70;13.60;95026.00;;;;5052250;28;20240;-85
2021/12/01 11:07:57;;;;;;;1.40;0.70;;;13.20;77.80;13.70;95016.00;;;;5051978;28;20539;-85
2021/12/01 11:10:26;;;;;;;0.40;0.40;;;13.30;78.50;13.70;95005.00;;;;5052174;28;20220;-84
2021/12/01 11:12:59;;;;;;;0.30;0.30;;;13.30;78.40;13.90;94996.00;;;;5052225;28;20196;-85
2021/12/01 11:15:30;;;;;;;0.30;0.30;;;13.40;78.20;13.90;94990.00;;;;5051992;28;20220;-84